sensor_id;sensor_type;location;lat;lon;timestamp;P1;P2;P0
73973;PMS5003;62336;-26.094;27.994;2024-01-07T00:01:14;9;9;
73973;PMS5003;62336;-26.094;27.994;2024-01-07T00:03:40;10;10;
73973;PMS5003;62336;-26.094;27.994;2024-01-07T00:06:05;10;9;
73973;PMS5003;62336;-26.094;27.994;2024-01-07T00:08:31;11;11;
73973;PMS5003;62336;-26.094;27.994;2024-01-07T00:10:57;9;8;
73973;PMS5003;62336;-26.094;27.994;2024-01-07T00:13:22;9;9;
73973;PMS5003;62336;-26.094;27.994;2024-01-07T00:15:48;10;8;
73973;PMS5003;62336;-26.094;27.994;2024-01-07T00:18:14;9;8;
73973;PMS5003;62336;-26.094;27.994;2024-01-07T00:20:40;10;10;
73973;PMS5003;62336;-26.094;27.994;2024-01-07T00:23:05;8;8;
73973;PMS5003;62336;-26.094;27.994;2024-01-07T00:25:31;9;9;
73973;PMS5003;62336;-26.094;27.994;2024-01-07T00:27:57;11;10;
73973;PMS5003;62336;-26.094;27.994;2024-01-07T00:30:23;7;7;
73973;PMS5003;62336;-26.094;27.994;2024-01-07T00:32:48;9;8;
73973;PMS5003;62336;-26.094;27.994;2024-01-07T00:35:14;10;9;
73973;PMS5003;62336;-26.094;27.994;2024-01-07T00:37:40;7;7;
73973;PMS5003;62336;-26.094;27.994;2024-01-07T00:40:06;8;8;
73973;PMS5003;62336;-26.094;27.994;2024-01-07T00:42:32;11;10;
73973;PMS5003;62336;-26.094;27.994;2024-01-07T00:44:57;13;10;
73973;PMS5003;62336;-26.094;27.994;2024-01-07T00:47:23;14;14;
73973;PMS5003;62336;-26.094;27.994;2024-01-07T00:49:49;12;10;
73973;PMS5003;62336;-26.094;27.994;2024-01-07T00:52:14;11;10;
73973;PMS5003;62336;-26.094;27.994;2024-01-07T00:54:40;13;12;
73973;PMS5003;62336;-26.094;27.994;2024-01-07T00:57:05;16;16;
73973;PMS5003;62336;-26.094;27.994;2024-01-07T00:59:31;24;22;
73973;PMS5003;62336;-26.094;27.994;2024-01-07T01:01:56;18;17;
73973;PMS5003;62336;-26.094;27.994;2024-01-07T01:04:22;19;18;
73973;PMS5003;62336;-26.094;27.994;2024-01-07T01:06:48;21;17;
73973;PMS5003;62336;-26.094;27.994;2024-01-07T01:09:13;28;27;
73973;PMS5003;62336;-26.094;27.994;2024-01-07T01:11:39;22;21;
73973;PMS5003;62336;-26.094;27.994;2024-01-07T01:14:04;19;19;
73973;PMS5003;62336;-26.094;27.994;2024-01-07T01:16:30;23;22;
73973;PMS5003;62336;-26.094;27.994;2024-01-07T01:18:55;28;26;
73973;PMS5003;62336;-26.094;27.994;2024-01-07T01:21:20;22;21;
73973;PMS5003;62336;-26.094;27.994;2024-01-07T01:23:46;28;27;
73973;PMS5003;62336;-26.094;27.994;2024-01-07T01:26:11;28;27;
73973;PMS5003;62336;-26.094;27.994;2024-01-07T01:28:37;25;25;
73973;PMS5003;62336;-26.094;27.994;2024-01-07T01:31:03;25;25;
73973;PMS5003;62336;-26.094;27.994;2024-01-07T01:33:28;34;31;
73973;PMS5003;62336;-26.094;27.994;2024-01-07T01:35:54;24;22;
73973;PMS5003;62336;-26.094;27.994;2024-01-07T01:38:19;24;24;
73973;PMS5003;62336;-26.094;27.994;2024-01-07T01:40:50;28;26;
73973;PMS5003;62336;-26.094;27.994;2024-01-07T01:43:10;27;27;
73973;PMS5003;62336;-26.094;27.994;2024-01-07T01:45:35;34;31;
73973;PMS5003;62336;-26.094;27.994;2024-01-07T01:48:02;28;26;
73973;PMS5003;62336;-26.094;27.994;2024-01-07T01:50:26;29;24;
73973;PMS5003;62336;-26.094;27.994;2024-01-07T01:52:52;30;28;
73973;PMS5003;62336;-26.094;27.994;2024-01-07T01:55:18;34;33;
73973;PMS5003;62336;-26.094;27.994;2024-01-07T01:57:43;29;29;
73973;PMS5003;62336;-26.094;27.994;2024-01-07T02:00:09;31;31;
73973;PMS5003;62336;-26.094;27.994;2024-01-07T02:02:34;30;29;
73973;PMS5003;62336;-26.094;27.994;2024-01-07T02:05:00;34;31;
73973;PMS5003;62336;-26.094;27.994;2024-01-07T02:07:26;34;32;
73973;PMS5003;62336;-26.094;27.994;2024-01-07T02:09:51;38;34;
73973;PMS5003;62336;-26.094;27.994;2024-01-07T02:12:17;34;31;
73973;PMS5003;62336;-26.094;27.994;2024-01-07T02:14:42;32;31;
73973;PMS5003;62336;-26.094;27.994;2024-01-07T02:17:07;38;32;
73973;PMS5003;62336;-26.094;27.994;2024-01-07T02:19:33;34;34;
73973;PMS5003;62336;-26.094;27.994;2024-01-07T02:21:58;35;34;
73973;PMS5003;62336;-26.094;27.994;2024-01-07T02:24:24;40;38;
73973;PMS5003;62336;-26.094;27.994;2024-01-07T02:26:49;35;31;
73973;PMS5003;62336;-26.094;27.994;2024-01-07T02:29:14;31;30;
73973;PMS5003;62336;-26.094;27.994;2024-01-07T02:31:40;31;29;
73973;PMS5003;62336;-26.094;27.994;2024-01-07T02:34:05;38;36;
73973;PMS5003;62336;-26.094;27.994;2024-01-07T02:36:31;37;34;
73973;PMS5003;62336;-26.094;27.994;2024-01-07T02:38:56;37;35;
73973;PMS5003;62336;-26.094;27.994;2024-01-07T02:41:21;42;40;
73973;PMS5003;62336;-26.094;27.994;2024-01-07T02:43:47;40;38;
73973;PMS5003;62336;-26.094;27.994;2024-01-07T02:46:13;35;33;
73973;PMS5003;62336;-26.094;27.994;2024-01-07T02:48:38;39;39;
73973;PMS5003;62336;-26.094;27.994;2024-01-07T02:51:04;40;39;
73973;PMS5003;62336;-26.094;27.994;2024-01-07T02:53:29;47;42;
73973;PMS5003;62336;-26.094;27.994;2024-01-07T02:55:54;34;33;
73973;PMS5003;62336;-26.094;27.994;2024-01-07T02:58:19;39;38;
73973;PMS5003;62336;-26.094;27.994;2024-01-07T03:00:45;42;38;
73973;PMS5003;62336;-26.094;27.994;2024-01-07T03:03:11;39;36;
73973;PMS5003;62336;-26.094;27.994;2024-01-07T03:05:36;39;38;
73973;PMS5003;62336;-26.094;27.994;2024-01-07T03:08:02;43;39;
73973;PMS5003;62336;-26.094;27.994;2024-01-07T03:10:27;42;42;
73973;PMS5003;62336;-26.094;27.994;2024-01-07T03:12:53;44;38;
73973;PMS5003;62336;-26.094;27.994;2024-01-07T03:15:18;44;40;
73973;PMS5003;62336;-26.094;27.994;2024-01-07T03:17:44;35;34;
73973;PMS5003;62336;-26.094;27.994;2024-01-07T03:20:10;34;33;
73973;PMS5003;62336;-26.094;27.994;2024-01-07T03:22:34;36;35;
73973;PMS5003;62336;-26.094;27.994;2024-01-07T03:25:00;37;34;
73973;PMS5003;62336;-26.094;27.994;2024-01-07T03:27:25;32;31;
73973;PMS5003;62336;-26.094;27.994;2024-01-07T03:29:51;34;33;
73973;PMS5003;62336;-26.094;27.994;2024-01-07T03:32:16;36;35;
73973;PMS5003;62336;-26.094;27.994;2024-01-07T03:34:42;39;34;
73973;PMS5003;62336;-26.094;27.994;2024-01-07T03:37:07;33;32;
73973;PMS5003;62336;-26.094;27.994;2024-01-07T03:39:33;34;34;
73973;PMS5003;62336;-26.094;27.994;2024-01-07T03:41:58;41;38;
73973;PMS5003;62336;-26.094;27.994;2024-01-07T03:44:24;30;30;
73973;PMS5003;62336;-26.094;27.994;2024-01-07T03:46:49;33;32;
73973;PMS5003;62336;-26.094;27.994;2024-01-07T03:49:16;33;32;
73973;PMS5003;62336;-26.094;27.994;2024-01-07T03:51:41;34;32;
73973;PMS5003;62336;-26.094;27.994;2024-01-07T03:54:06;33;30;
73973;PMS5003;62336;-26.094;27.994;2024-01-07T03:56:31;29;29;
73973;PMS5003;62336;-26.094;27.994;2024-01-07T03:58:57;28;28;
73973;PMS5003;62336;-26.094;27.994;2024-01-07T04:01:23;37;34;
73973;PMS5003;62336;-26.094;27.994;2024-01-07T04:03:48;32;31;
73973;PMS5003;62336;-26.094;27.994;2024-01-07T04:06:13;29;27;
73973;PMS5003;62336;-26.094;27.994;2024-01-07T04:08:39;28;26;
73973;PMS5003;62336;-26.094;27.994;2024-01-07T04:11:04;28;26;
73973;PMS5003;62336;-26.094;27.994;2024-01-07T04:13:30;24;23;
73973;PMS5003;62336;-26.094;27.994;2024-01-07T04:15:55;30;28;
73973;PMS5003;62336;-26.094;27.994;2024-01-07T04:18:20;24;24;
73973;PMS5003;62336;-26.094;27.994;2024-01-07T04:20:45;27;27;
73973;PMS5003;62336;-26.094;27.994;2024-01-07T04:23:10;20;18;
73973;PMS5003;62336;-26.094;27.994;2024-01-07T04:25:36;25;24;
73973;PMS5003;62336;-26.094;27.994;2024-01-07T04:28:01;23;23;
73973;PMS5003;62336;-26.094;27.994;2024-01-07T04:30:26;22;22;
73973;PMS5003;62336;-26.094;27.994;2024-01-07T04:32:52;24;23;
73973;PMS5003;62336;-26.094;27.994;2024-01-07T04:35:18;21;20;
73973;PMS5003;62336;-26.094;27.994;2024-01-07T04:37:44;17;17;
73973;PMS5003;62336;-26.094;27.994;2024-01-07T04:40:10;19;19;
73973;PMS5003;62336;-26.094;27.994;2024-01-07T04:42:34;18;17;
73973;PMS5003;62336;-26.094;27.994;2024-01-07T04:45:00;21;19;
73973;PMS5003;62336;-26.094;27.994;2024-01-07T04:47:26;17;16;
73973;PMS5003;62336;-26.094;27.994;2024-01-07T04:49:51;20;18;
73973;PMS5003;62336;-26.094;27.994;2024-01-07T04:52:17;19;19;
73973;PMS5003;62336;-26.094;27.994;2024-01-07T04:54:43;24;21;
73973;PMS5003;62336;-26.094;27.994;2024-01-07T04:57:08;24;24;
73973;PMS5003;62336;-26.094;27.994;2024-01-07T04:59:33;26;25;
73973;PMS5003;62336;-26.094;27.994;2024-01-07T05:01:59;27;26;
73973;PMS5003;62336;-26.094;27.994;2024-01-07T05:04:24;26;25;
73973;PMS5003;62336;-26.094;27.994;2024-01-07T05:06:50;29;28;
73973;PMS5003;62336;-26.094;27.994;2024-01-07T05:09:15;32;30;
73973;PMS5003;62336;-26.094;27.994;2024-01-07T05:11:40;29;28;
73973;PMS5003;62336;-26.094;27.994;2024-01-07T05:14:05;32;30;
73973;PMS5003;62336;-26.094;27.994;2024-01-07T05:16:31;29;28;
73973;PMS5003;62336;-26.094;27.994;2024-01-07T05:18:56;30;27;
73973;PMS5003;62336;-26.094;27.994;2024-01-07T05:21:21;29;27;
73973;PMS5003;62336;-26.094;27.994;2024-01-07T05:23:47;28;27;
73973;PMS5003;62336;-26.094;27.994;2024-01-07T05:26:12;27;26;
73973;PMS5003;62336;-26.094;27.994;2024-01-07T05:28:37;30;29;
73973;PMS5003;62336;-26.094;27.994;2024-01-07T05:31:03;28;27;
73973;PMS5003;62336;-26.094;27.994;2024-01-07T05:33:28;25;23;
73973;PMS5003;62336;-26.094;27.994;2024-01-07T05:35:54;27;23;
73973;PMS5003;62336;-26.094;27.994;2024-01-07T05:38:19;25;24;
73973;PMS5003;62336;-26.094;27.994;2024-01-07T05:40:44;26;24;
73973;PMS5003;62336;-26.094;27.994;2024-01-07T05:43:10;24;23;
73973;PMS5003;62336;-26.094;27.994;2024-01-07T05:45:36;27;26;
73973;PMS5003;62336;-26.094;27.994;2024-01-07T05:48:01;26;25;
73973;PMS5003;62336;-26.094;27.994;2024-01-07T05:50:26;24;24;
73973;PMS5003;62336;-26.094;27.994;2024-01-07T05:52:52;21;20;
73973;PMS5003;62336;-26.094;27.994;2024-01-07T05:55:17;25;24;
73973;PMS5003;62336;-26.094;27.994;2024-01-07T05:57:43;46;38;
73973;PMS5003;62336;-26.094;27.994;2024-01-07T06:00:09;26;24;
73973;PMS5003;62336;-26.094;27.994;2024-01-07T06:02:34;25;24;
73973;PMS5003;62336;-26.094;27.994;2024-01-07T06:04:58;28;28;
73973;PMS5003;62336;-26.094;27.994;2024-01-07T06:07:24;22;22;
73973;PMS5003;62336;-26.094;27.994;2024-01-07T06:09:50;28;23;
73973;PMS5003;62336;-26.094;27.994;2024-01-07T06:12:15;26;26;
73973;PMS5003;62336;-26.094;27.994;2024-01-07T06:14:40;28;27;
73973;PMS5003;62336;-26.094;27.994;2024-01-07T06:17:06;25;25;
73973;PMS5003;62336;-26.094;27.994;2024-01-07T06:19:31;26;24;
73973;PMS5003;62336;-26.094;27.994;2024-01-07T06:21:56;24;24;
73973;PMS5003;62336;-26.094;27.994;2024-01-07T06:24:21;25;25;
73973;PMS5003;62336;-26.094;27.994;2024-01-07T06:26:47;28;28;
73973;PMS5003;62336;-26.094;27.994;2024-01-07T06:29:13;28;27;
73973;PMS5003;62336;-26.094;27.994;2024-01-07T06:31:42;26;26;
73973;PMS5003;62336;-26.094;27.994;2024-01-07T06:34:04;28;26;
73973;PMS5003;62336;-26.094;27.994;2024-01-07T06:36:29;27;26;
73973;PMS5003;62336;-26.094;27.994;2024-01-07T06:38:55;27;27;
73973;PMS5003;62336;-26.094;27.994;2024-01-07T06:41:20;30;30;
73973;PMS5003;62336;-26.094;27.994;2024-01-07T06:43:45;28;28;
73973;PMS5003;62336;-26.094;27.994;2024-01-07T06:46:11;29;29;
73973;PMS5003;62336;-26.094;27.994;2024-01-07T06:48:36;27;26;
73973;PMS5003;62336;-26.094;27.994;2024-01-07T06:51:02;25;25;
73973;PMS5003;62336;-26.094;27.994;2024-01-07T06:53:27;24;22;
73973;PMS5003;62336;-26.094;27.994;2024-01-07T06:55:52;24;21;
73973;PMS5003;62336;-26.094;27.994;2024-01-07T06:58:18;28;27;
73973;PMS5003;62336;-26.094;27.994;2024-01-07T07:00:44;32;31;
73973;PMS5003;62336;-26.094;27.994;2024-01-07T07:03:09;23;22;
73973;PMS5003;62336;-26.094;27.994;2024-01-07T07:05:34;25;25;
73973;PMS5003;62336;-26.094;27.994;2024-01-07T07:08:00;24;24;
73973;PMS5003;62336;-26.094;27.994;2024-01-07T07:10:25;24;24;
73973;PMS5003;62336;-26.094;27.994;2024-01-07T07:12:51;20;18;
73973;PMS5003;62336;-26.094;27.994;2024-01-07T07:15:16;18;17;
73973;PMS5003;62336;-26.094;27.994;2024-01-07T07:17:41;20;18;
73973;PMS5003;62336;-26.094;27.994;2024-01-07T07:20:07;18;17;
73973;PMS5003;62336;-26.094;27.994;2024-01-07T07:22:32;13;13;
73973;PMS5003;62336;-26.094;27.994;2024-01-07T07:24:57;17;17;
73973;PMS5003;62336;-26.094;27.994;2024-01-07T07:27:22;15;15;
73973;PMS5003;62336;-26.094;27.994;2024-01-07T07:29:48;16;14;
73973;PMS5003;62336;-26.094;27.994;2024-01-07T07:32:13;13;13;
73973;PMS5003;62336;-26.094;27.994;2024-01-07T07:34:38;11;10;
73973;PMS5003;62336;-26.094;27.994;2024-01-07T07:37:04;11;11;
73973;PMS5003;62336;-26.094;27.994;2024-01-07T07:39:29;11;11;
73973;PMS5003;62336;-26.094;27.994;2024-01-07T07:41:54;9;9;
73973;PMS5003;62336;-26.094;27.994;2024-01-07T07:44:19;10;10;
73973;PMS5003;62336;-26.094;27.994;2024-01-07T07:46:45;11;11;
73973;PMS5003;62336;-26.094;27.994;2024-01-07T07:49:11;9;8;
73973;PMS5003;62336;-26.094;27.994;2024-01-07T07:51:36;9;9;
73973;PMS5003;62336;-26.094;27.994;2024-01-07T07:54:02;10;8;
73973;PMS5003;62336;-26.094;27.994;2024-01-07T07:56:27;10;10;
73973;PMS5003;62336;-26.094;27.994;2024-01-07T07:58:53;11;11;
73973;PMS5003;62336;-26.094;27.994;2024-01-07T08:01:18;9;9;
73973;PMS5003;62336;-26.094;27.994;2024-01-07T08:03:43;11;11;
73973;PMS5003;62336;-26.094;27.994;2024-01-07T08:06:08;10;9;
73973;PMS5003;62336;-26.094;27.994;2024-01-07T08:08:34;9;8;
73973;PMS5003;62336;-26.094;27.994;2024-01-07T08:10:59;11;10;
73973;PMS5003;62336;-26.094;27.994;2024-01-07T08:13:24;7;6;
73973;PMS5003;62336;-26.094;27.994;2024-01-07T08:15:50;8;8;
73973;PMS5003;62336;-26.094;27.994;2024-01-07T08:18:16;6;6;
73973;PMS5003;62336;-26.094;27.994;2024-01-07T08:20:42;6;6;
73973;PMS5003;62336;-26.094;27.994;2024-01-07T08:23:07;4;4;
73973;PMS5003;62336;-26.094;27.994;2024-01-07T08:25:33;6;6;
73973;PMS5003;62336;-26.094;27.994;2024-01-07T08:27:59;6;6;
73973;PMS5003;62336;-26.094;27.994;2024-01-07T08:30:25;5;5;
73973;PMS5003;62336;-26.094;27.994;2024-01-07T08:32:51;5;5;
73973;PMS5003;62336;-26.094;27.994;2024-01-07T08:35:17;5;4;
73973;PMS5003;62336;-26.094;27.994;2024-01-07T08:37:43;5;5;
73973;PMS5003;62336;-26.094;27.994;2024-01-07T08:40:09;6;5;
73973;PMS5003;62336;-26.094;27.994;2024-01-07T08:42:34;4;4;
73973;PMS5003;62336;-26.094;27.994;2024-01-07T08:45:00;5;5;
73973;PMS5003;62336;-26.094;27.994;2024-01-07T08:47:26;4;4;
73973;PMS5003;62336;-26.094;27.994;2024-01-07T08:49:51;5;5;
73973;PMS5003;62336;-26.094;27.994;2024-01-07T08:52:16;4;3;
73973;PMS5003;62336;-26.094;27.994;2024-01-07T08:54:41;6;6;
73973;PMS5003;62336;-26.094;27.994;2024-01-07T08:57:07;6;5;
73973;PMS5003;62336;-26.094;27.994;2024-01-07T08:59:32;3;3;
73973;PMS5003;62336;-26.094;27.994;2024-01-07T09:01:58;5;4;
73973;PMS5003;62336;-26.094;27.994;2024-01-07T09:04:23;7;7;
73973;PMS5003;62336;-26.094;27.994;2024-01-07T09:06:48;5;5;
73973;PMS5003;62336;-26.094;27.994;2024-01-07T09:09:13;5;5;
73973;PMS5003;62336;-26.094;27.994;2024-01-07T09:11:38;4;4;
73973;PMS5003;62336;-26.094;27.994;2024-01-07T09:14:04;3;3;
73973;PMS5003;62336;-26.094;27.994;2024-01-07T09:16:29;7;7;
73973;PMS5003;62336;-26.094;27.994;2024-01-07T09:18:54;13;11;
73973;PMS5003;62336;-26.094;27.994;2024-01-07T09:21:19;10;10;
73973;PMS5003;62336;-26.094;27.994;2024-01-07T09:23:44;12;11;
73973;PMS5003;62336;-26.094;27.994;2024-01-07T09:26:09;10;9;
73973;PMS5003;62336;-26.094;27.994;2024-01-07T09:28:35;12;11;
73973;PMS5003;62336;-26.094;27.994;2024-01-07T09:30:59;10;10;
73973;PMS5003;62336;-26.094;27.994;2024-01-07T09:33:24;10;10;
73973;PMS5003;62336;-26.094;27.994;2024-01-07T09:35:49;10;10;
73973;PMS5003;62336;-26.094;27.994;2024-01-07T09:38:14;8;8;
73973;PMS5003;62336;-26.094;27.994;2024-01-07T09:40:39;10;10;
73973;PMS5003;62336;-26.094;27.994;2024-01-07T09:43:04;7;7;
73973;PMS5003;62336;-26.094;27.994;2024-01-07T09:45:30;5;5;
73973;PMS5003;62336;-26.094;27.994;2024-01-07T09:47:54;10;9;
73973;PMS5003;62336;-26.094;27.994;2024-01-07T09:50:20;6;6;
73973;PMS5003;62336;-26.094;27.994;2024-01-07T09:52:46;8;8;
73973;PMS5003;62336;-26.094;27.994;2024-01-07T09:55:12;6;6;
73973;PMS5003;62336;-26.094;27.994;2024-01-07T09:57:37;5;5;
73973;PMS5003;62336;-26.094;27.994;2024-01-07T10:00:02;4;4;
73973;PMS5003;62336;-26.094;27.994;2024-01-07T10:02:28;4;4;
73973;PMS5003;62336;-26.094;27.994;2024-01-07T10:04:54;5;5;
73973;PMS5003;62336;-26.094;27.994;2024-01-07T10:07:19;6;6;
73973;PMS5003;62336;-26.094;27.994;2024-01-07T10:09:44;6;6;
73973;PMS5003;62336;-26.094;27.994;2024-01-07T10:12:09;5;5;
73973;PMS5003;62336;-26.094;27.994;2024-01-07T10:14:34;4;4;
73973;PMS5003;62336;-26.094;27.994;2024-01-07T10:16:59;6;6;
73973;PMS5003;62336;-26.094;27.994;2024-01-07T10:19:24;7;7;
73973;PMS5003;62336;-26.094;27.994;2024-01-07T10:24:15;8;7;
73973;PMS5003;62336;-26.094;27.994;2024-01-07T10:26:40;7;7;
73973;PMS5003;62336;-26.094;27.994;2024-01-07T10:29:05;4;4;
73973;PMS5003;62336;-26.094;27.994;2024-01-07T10:31:31;8;8;
73973;PMS5003;62336;-26.094;27.994;2024-01-07T10:33:55;7;7;
73973;PMS5003;62336;-26.094;27.994;2024-01-07T10:36:20;6;6;
73973;PMS5003;62336;-26.094;27.994;2024-01-07T10:38:45;7;6;
73973;PMS5003;62336;-26.094;27.994;2024-01-07T10:41:11;7;7;
73973;PMS5003;62336;-26.094;27.994;2024-01-07T10:43:35;8;7;
73973;PMS5003;62336;-26.094;27.994;2024-01-07T10:46:00;7;6;
73973;PMS5003;62336;-26.094;27.994;2024-01-07T10:48:25;7;7;
73973;PMS5003;62336;-26.094;27.994;2024-01-07T10:50:50;7;7;
73973;PMS5003;62336;-26.094;27.994;2024-01-07T10:53:18;5;5;
73973;PMS5003;62336;-26.094;27.994;2024-01-07T10:55:40;7;7;
73973;PMS5003;62336;-26.094;27.994;2024-01-07T10:58:05;6;6;
73973;PMS5003;62336;-26.094;27.994;2024-01-07T11:00:30;7;6;
73973;PMS5003;62336;-26.094;27.994;2024-01-07T11:02:59;5;5;
73973;PMS5003;62336;-26.094;27.994;2024-01-07T11:05:23;4;4;
73973;PMS5003;62336;-26.094;27.994;2024-01-07T11:07:48;5;5;
73973;PMS5003;62336;-26.094;27.994;2024-01-07T11:10:12;5;5;
73973;PMS5003;62336;-26.094;27.994;2024-01-07T11:12:35;5;5;
73973;PMS5003;62336;-26.094;27.994;2024-01-07T11:15:01;7;7;
73973;PMS5003;62336;-26.094;27.994;2024-01-07T11:19:51;7;6;
73973;PMS5003;62336;-26.094;27.994;2024-01-07T11:22:21;7;7;
73973;PMS5003;62336;-26.094;27.994;2024-01-07T11:24:41;6;6;
73973;PMS5003;62336;-26.094;27.994;2024-01-07T11:27:07;6;6;
73973;PMS5003;62336;-26.094;27.994;2024-01-07T11:29:31;8;8;
73973;PMS5003;62336;-26.094;27.994;2024-01-07T11:31:56;8;8;
73973;PMS5003;62336;-26.094;27.994;2024-01-07T11:36:46;9;9;
73973;PMS5003;62336;-26.094;27.994;2024-01-07T11:39:11;9;7;
73973;PMS5003;62336;-26.094;27.994;2024-01-07T11:41:36;8;8;
73973;PMS5003;62336;-26.094;27.994;2024-01-07T11:44:01;9;9;
73973;PMS5003;62336;-26.094;27.994;2024-01-07T11:46:26;12;11;
73973;PMS5003;62336;-26.094;27.994;2024-01-07T11:48:53;10;8;
73973;PMS5003;62336;-26.094;27.994;2024-01-07T11:51:16;10;8;
73973;PMS5003;62336;-26.094;27.994;2024-01-07T11:53:41;8;8;
73973;PMS5003;62336;-26.094;27.994;2024-01-07T11:56:08;8;8;
73973;PMS5003;62336;-26.094;27.994;2024-01-07T11:58:31;7;7;
73973;PMS5003;62336;-26.094;27.994;2024-01-07T12:00:57;8;7;
73973;PMS5003;62336;-26.094;27.994;2024-01-07T12:03:23;6;6;
73973;PMS5003;62336;-26.094;27.994;2024-01-07T12:05:47;8;8;
73973;PMS5003;62336;-26.094;27.994;2024-01-07T12:08:12;6;6;
73973;PMS5003;62336;-26.094;27.994;2024-01-07T12:10:37;7;7;
73973;PMS5003;62336;-26.094;27.994;2024-01-07T12:13:02;10;9;
73973;PMS5003;62336;-26.094;27.994;2024-01-07T12:15:27;8;8;
73973;PMS5003;62336;-26.094;27.994;2024-01-07T12:17:55;8;8;
73973;PMS5003;62336;-26.094;27.994;2024-01-07T12:20:17;11;10;
73973;PMS5003;62336;-26.094;27.994;2024-01-07T12:22:42;14;12;
73973;PMS5003;62336;-26.094;27.994;2024-01-07T12:25:07;15;13;
73973;PMS5003;62336;-26.094;27.994;2024-01-07T12:27:33;13;13;
73973;PMS5003;62336;-26.094;27.994;2024-01-07T12:29:58;11;11;
73973;PMS5003;62336;-26.094;27.994;2024-01-07T12:32:23;10;9;
73973;PMS5003;62336;-26.094;27.994;2024-01-07T12:34:48;10;10;
73973;PMS5003;62336;-26.094;27.994;2024-01-07T12:37:13;11;10;
73973;PMS5003;62336;-26.094;27.994;2024-01-07T12:39:38;8;8;
73973;PMS5003;62336;-26.094;27.994;2024-01-07T12:42:04;11;11;
73973;PMS5003;62336;-26.094;27.994;2024-01-07T12:44:28;12;12;
73973;PMS5003;62336;-26.094;27.994;2024-01-07T12:46:53;12;11;
73973;PMS5003;62336;-26.094;27.994;2024-01-07T12:49:19;11;10;
73973;PMS5003;62336;-26.094;27.994;2024-01-07T12:51:44;13;12;
73973;PMS5003;62336;-26.094;27.994;2024-01-07T12:54:09;10;9;
73973;PMS5003;62336;-26.094;27.994;2024-01-07T12:56:34;13;12;
73973;PMS5003;62336;-26.094;27.994;2024-01-07T12:59:00;12;12;
73973;PMS5003;62336;-26.094;27.994;2024-01-07T13:01:25;13;13;
73973;PMS5003;62336;-26.094;27.994;2024-01-07T13:03:50;18;17;
73973;PMS5003;62336;-26.094;27.994;2024-01-07T13:06:16;13;13;
73973;PMS5003;62336;-26.094;27.994;2024-01-07T13:08:41;15;15;
73973;PMS5003;62336;-26.094;27.994;2024-01-07T13:11:06;13;12;
73973;PMS5003;62336;-26.094;27.994;2024-01-07T13:13:31;14;14;
73973;PMS5003;62336;-26.094;27.994;2024-01-07T13:15:56;12;12;
73973;PMS5003;62336;-26.094;27.994;2024-01-07T13:18:21;15;13;
73973;PMS5003;62336;-26.094;27.994;2024-01-07T13:20:46;12;11;
73973;PMS5003;62336;-26.094;27.994;2024-01-07T13:23:11;12;12;
73973;PMS5003;62336;-26.094;27.994;2024-01-07T13:25:36;14;13;
73973;PMS5003;62336;-26.094;27.994;2024-01-07T13:28:02;20;19;
73973;PMS5003;62336;-26.094;27.994;2024-01-07T13:30:27;14;14;
73973;PMS5003;62336;-26.094;27.994;2024-01-07T13:32:52;15;13;
73973;PMS5003;62336;-26.094;27.994;2024-01-07T13:35:17;16;16;
73973;PMS5003;62336;-26.094;27.994;2024-01-07T13:37:42;14;14;
73973;PMS5003;62336;-26.094;27.994;2024-01-07T13:40:08;16;16;
73973;PMS5003;62336;-26.094;27.994;2024-01-07T13:42:33;13;12;
73973;PMS5003;62336;-26.094;27.994;2024-01-07T13:44:58;14;14;
73973;PMS5003;62336;-26.094;27.994;2024-01-07T13:47:23;18;16;
73973;PMS5003;62336;-26.094;27.994;2024-01-07T13:49:48;15;15;
73973;PMS5003;62336;-26.094;27.994;2024-01-07T13:52:14;13;13;
73973;PMS5003;62336;-26.094;27.994;2024-01-07T13:54:40;14;14;
73973;PMS5003;62336;-26.094;27.994;2024-01-07T13:57:05;16;15;
73973;PMS5003;62336;-26.094;27.994;2024-01-07T13:59:30;13;12;
73973;PMS5003;62336;-26.094;27.994;2024-01-07T14:01:56;12;12;
73973;PMS5003;62336;-26.094;27.994;2024-01-07T14:04:20;12;12;
73973;PMS5003;62336;-26.094;27.994;2024-01-07T14:06:47;11;11;
73973;PMS5003;62336;-26.094;27.994;2024-01-07T14:09:11;12;12;
73973;PMS5003;62336;-26.094;27.994;2024-01-07T14:11:35;12;11;
73973;PMS5003;62336;-26.094;27.994;2024-01-07T14:14:01;13;12;
73973;PMS5003;62336;-26.094;27.994;2024-01-07T14:16:26;13;12;
73973;PMS5003;62336;-26.094;27.994;2024-01-07T14:18:51;12;12;
73973;PMS5003;62336;-26.094;27.994;2024-01-07T14:21:16;13;13;
73973;PMS5003;62336;-26.094;27.994;2024-01-07T14:23:41;13;13;
73973;PMS5003;62336;-26.094;27.994;2024-01-07T14:26:07;16;15;
73973;PMS5003;62336;-26.094;27.994;2024-01-07T14:28:32;13;13;
73973;PMS5003;62336;-26.094;27.994;2024-01-07T14:30:58;13;12;
73973;PMS5003;62336;-26.094;27.994;2024-01-07T14:33:23;13;13;
73973;PMS5003;62336;-26.094;27.994;2024-01-07T14:35:49;13;13;
73973;PMS5003;62336;-26.094;27.994;2024-01-07T14:38:15;16;14;
73973;PMS5003;62336;-26.094;27.994;2024-01-07T14:40:41;14;13;
73973;PMS5003;62336;-26.094;27.994;2024-01-07T14:43:06;13;13;
73973;PMS5003;62336;-26.094;27.994;2024-01-07T14:45:31;11;10;
73973;PMS5003;62336;-26.094;27.994;2024-01-07T14:47:56;13;12;
73973;PMS5003;62336;-26.094;27.994;2024-01-07T14:50:21;14;14;
73973;PMS5003;62336;-26.094;27.994;2024-01-07T14:52:47;13;13;
73973;PMS5003;62336;-26.094;27.994;2024-01-07T14:55:13;16;16;
73973;PMS5003;62336;-26.094;27.994;2024-01-07T14:57:39;12;12;
73973;PMS5003;62336;-26.094;27.994;2024-01-07T15:00:05;13;13;
73973;PMS5003;62336;-26.094;27.994;2024-01-07T15:02:29;16;15;
73973;PMS5003;62336;-26.094;27.994;2024-01-07T15:04:54;17;17;
73973;PMS5003;62336;-26.094;27.994;2024-01-07T15:07:19;18;17;
73973;PMS5003;62336;-26.094;27.994;2024-01-07T15:09:44;17;16;
73973;PMS5003;62336;-26.094;27.994;2024-01-07T15:12:10;16;16;
73973;PMS5003;62336;-26.094;27.994;2024-01-07T15:14:35;13;12;
73973;PMS5003;62336;-26.094;27.994;2024-01-07T15:17:00;14;14;
73973;PMS5003;62336;-26.094;27.994;2024-01-07T15:19:25;17;16;
73973;PMS5003;62336;-26.094;27.994;2024-01-07T15:21:51;15;14;
73973;PMS5003;62336;-26.094;27.994;2024-01-07T15:24:16;16;15;
73973;PMS5003;62336;-26.094;27.994;2024-01-07T15:26:42;18;18;
73973;PMS5003;62336;-26.094;27.994;2024-01-07T15:29:08;13;13;
73973;PMS5003;62336;-26.094;27.994;2024-01-07T15:31:33;14;14;
73973;PMS5003;62336;-26.094;27.994;2024-01-07T15:33:58;17;17;
73973;PMS5003;62336;-26.094;27.994;2024-01-07T15:36:23;19;18;
73973;PMS5003;62336;-26.094;27.994;2024-01-07T15:38:48;16;15;
73973;PMS5003;62336;-26.094;27.994;2024-01-07T15:41:13;20;18;
73973;PMS5003;62336;-26.094;27.994;2024-01-07T15:43:39;20;19;
73973;PMS5003;62336;-26.094;27.994;2024-01-07T15:46:04;18;18;
73973;PMS5003;62336;-26.094;27.994;2024-01-07T15:48:30;18;18;